createdAt,value
2023-05-15T00:01:37.437Z,8.03
2023-05-15T00:04:06.133Z,5.60
2023-05-15T00:06:33.685Z,6.00
2023-05-15T00:09:01.392Z,5.17
2023-05-15T00:11:29.028Z,9.27
2023-05-15T00:13:56.531Z,5.17
2023-05-15T00:16:24.981Z,7.30
2023-05-15T00:18:52.499Z,5.77
2023-05-15T00:21:19.965Z,7.23
2023-05-15T00:23:47.704Z,6.27
2023-05-15T00:26:15.876Z,5.93
2023-05-15T00:28:43.356Z,5.10
2023-05-15T00:31:13.129Z,10.37
2023-05-15T00:33:40.666Z,6.43
2023-05-15T00:36:08.749Z,8.10
2023-05-15T00:38:36.220Z,8.63
2023-05-15T00:41:07.659Z,7.07
2023-05-15T00:43:36.058Z,11.20
2023-05-15T00:46:04.818Z,5.97
2023-05-15T00:48:33.864Z,6.90
2023-05-15T00:51:01.711Z,5.90
2023-05-15T00:53:29.312Z,9.30
2023-05-15T00:55:59.562Z,6.97
2023-05-15T00:58:28.847Z,6.23
2023-05-15T01:00:56.394Z,7.40
2023-05-15T01:03:24.905Z,6.80
2023-05-15T01:05:52.597Z,7.40
2023-05-15T01:08:29.428Z,6.57
2023-05-15T01:10:59.196Z,6.33
2023-05-15T01:13:26.656Z,7.93
2023-05-15T01:15:55.609Z,6.17
2023-05-15T01:18:23.320Z,6.27
2023-05-15T01:21:06.384Z,8.83
2023-05-15T01:24:27.064Z,8.53
2023-05-15T01:27:38.205Z,7.37
2023-05-15T01:30:26.801Z,6.97
2023-05-15T01:33:12.183Z,6.30
2023-05-15T01:35:56.236Z,7.13
2023-05-15T01:38:46.662Z,9.30
2023-05-15T01:41:45.844Z,6.70
2023-05-15T01:44:45.103Z,6.63
2023-05-15T01:47:22.456Z,8.83
2023-05-15T01:49:53.831Z,7.07
2023-05-15T01:52:31.268Z,9.80
2023-05-15T01:54:59.554Z,9.90
2023-05-15T01:57:29.865Z,8.67
2023-05-15T01:59:59.015Z,8.17
2023-05-15T02:02:28.856Z,9.17
2023-05-15T02:04:57.660Z,7.73
2023-05-15T02:07:26.869Z,8.67
2023-05-15T02:09:54.965Z,8.67
2023-05-15T02:12:26.579Z,8.27
2023-05-15T02:14:55.923Z,8.77
2023-05-15T02:17:23.956Z,8.20
2023-05-15T02:19:51.857Z,8.20
2023-05-15T02:22:19.333Z,9.37
2023-05-15T02:24:46.886Z,9.30
2023-05-15T02:27:23.008Z,9.97
2023-05-15T02:30:29.580Z,10.50
2023-05-15T02:33:15.297Z,9.80
2023-05-15T02:36:10.974Z,9.87
2023-05-15T02:38:53.930Z,13.40
2023-05-15T02:41:23.890Z,9.73
2023-05-15T02:43:55.168Z,9.13
2023-05-15T02:46:25.791Z,10.67
2023-05-15T02:48:54.758Z,17.10
2023-05-15T02:51:22.416Z,13.23
2023-05-15T02:53:49.926Z,11.47
2023-05-15T02:56:17.366Z,12.27
2023-05-15T02:58:45.042Z,12.93
2023-05-15T03:01:12.714Z,9.87
2023-05-15T03:03:40.196Z,9.90
2023-05-15T03:06:07.806Z,9.77
2023-05-15T03:08:36.003Z,10.40
2023-05-15T03:11:05.433Z,14.00
2023-05-15T03:13:32.979Z,12.63
2023-05-15T03:16:00.437Z,14.43
2023-05-15T03:18:28.019Z,15.47
2023-05-15T03:20:56.004Z,11.13
2023-05-15T03:23:23.507Z,10.37
2023-05-15T03:25:50.947Z,13.93
2023-05-15T03:28:18.531Z,12.23
2023-05-15T03:30:46.011Z,9.17
2023-05-15T03:33:13.572Z,10.83
2023-05-15T03:35:41.032Z,10.23
2023-05-15T03:38:08.500Z,10.43
2023-05-15T03:40:38.091Z,10.57
2023-05-15T03:43:06.257Z,10.73
2023-05-15T03:45:37.078Z,11.17
2023-05-15T03:48:05.242Z,14.73
2023-05-15T03:50:33.157Z,12.07
2023-05-15T03:53:00.832Z,14.40
2023-05-15T03:55:28.611Z,15.87
2023-05-15T03:57:56.123Z,15.53
2023-05-15T04:00:23.986Z,10.20
2023-05-15T04:02:52.195Z,12.00
2023-05-15T04:05:21.722Z,9.90
2023-05-15T04:07:49.504Z,9.97
2023-05-15T04:10:17.037Z,10.70
2023-05-15T04:12:44.483Z,11.23
2023-05-15T04:15:19.013Z,18.00
2023-05-15T04:17:48.640Z,12.13
2023-05-15T04:20:20.359Z,13.07
2023-05-15T04:22:52.568Z,13.30
2023-05-15T04:25:20.606Z,11.60
2023-05-15T04:27:49.309Z,13.57
2023-05-15T04:30:17.078Z,11.60
2023-05-15T04:32:44.612Z,10.63
2023-05-15T04:35:13.641Z,11.20
2023-05-15T04:37:42.666Z,11.23
2023-05-15T04:40:10.809Z,13.83
2023-05-15T04:42:39.512Z,10.73
2023-05-15T04:45:10.253Z,13.57
2023-05-15T04:47:37.900Z,13.40
2023-05-15T04:50:06.736Z,11.50
2023-05-15T04:52:34.385Z,10.77
2023-05-15T04:55:02.041Z,15.33
2023-05-15T04:57:29.591Z,10.37
2023-05-15T04:59:58.296Z,11.27
2023-05-15T05:02:25.910Z,11.13
2023-05-15T05:04:53.469Z,10.00
2023-05-15T05:07:21.062Z,9.50
2023-05-15T05:09:48.486Z,10.97
2023-05-15T05:12:15.944Z,10.87
2023-05-15T05:14:44.713Z,10.83
2023-05-15T05:17:12.344Z,10.20
2023-05-15T05:19:39.827Z,12.00
2023-05-15T05:22:07.718Z,10.37
2023-05-15T05:24:37.484Z,10.67
2023-05-15T05:27:05.725Z,10.07
2023-05-15T05:29:33.341Z,10.63
2023-05-15T05:32:01.333Z,11.63
2023-05-15T05:34:29.226Z,10.30
2023-05-15T05:36:56.673Z,10.13
2023-05-15T05:39:24.157Z,10.87
2023-05-15T05:41:51.682Z,9.47
2023-05-15T05:44:19.263Z,9.07
2023-05-15T05:46:46.750Z,10.87
2023-05-15T05:49:14.230Z,12.07
2023-05-15T05:51:41.790Z,10.20
2023-05-15T05:54:09.288Z,9.27
2023-05-15T05:56:37.236Z,10.73
2023-05-15T05:59:08.493Z,8.87
2023-05-15T06:01:36.312Z,7.20
2023-05-15T06:04:03.910Z,7.63
2023-05-15T06:06:31.432Z,7.73
2023-05-15T06:08:58.962Z,9.30
2023-05-15T06:11:27.137Z,8.40
2023-05-15T06:13:54.575Z,10.27
2023-05-15T06:16:22.595Z,8.93
2023-05-15T06:18:50.166Z,10.23
2023-05-15T06:21:17.636Z,9.23
2023-05-15T06:23:45.158Z,6.47
2023-05-15T06:26:12.686Z,6.67
2023-05-15T06:28:40.149Z,8.97
2023-05-15T06:31:07.702Z,5.93
2023-05-15T06:33:35.237Z,10.83
2023-05-15T06:36:02.892Z,8.20
2023-05-15T06:38:30.414Z,6.20
2023-05-15T06:40:57.821Z,7.97
2023-05-15T06:43:25.392Z,7.30
2023-05-15T06:45:52.982Z,6.83
2023-05-15T06:48:20.591Z,7.27
2023-05-15T06:50:48.022Z,9.97
2023-05-15T06:53:15.434Z,7.80
2023-05-15T06:55:42.977Z,10.93
2023-05-15T06:58:10.426Z,9.50
2023-05-15T07:00:37.887Z,6.40
2023-05-15T07:03:06.307Z,6.43
2023-05-15T07:05:33.799Z,6.37
2023-05-15T07:08:01.291Z,7.47
2023-05-15T07:10:28.841Z,7.33
2023-05-15T07:12:56.392Z,9.93
2023-05-15T07:15:23.830Z,8.67
2023-05-15T07:17:51.741Z,15.27
2023-05-15T07:20:19.279Z,6.90
2023-05-15T07:22:55.829Z,18.50
2023-05-15T07:25:25.587Z,19.23
2023-05-15T07:27:56.277Z,25.27
2023-05-15T07:30:24.226Z,7.70
2023-05-15T07:32:51.970Z,7.63
2023-05-15T07:35:19.687Z,8.73
2023-05-15T07:37:47.193Z,8.73
2023-05-15T07:40:15.712Z,11.10
2023-05-15T07:42:47.079Z,7.47
2023-05-15T07:45:14.776Z,10.40
2023-05-15T07:47:47.384Z,8.30
2023-05-15T07:50:16.017Z,7.67
2023-05-15T07:52:43.847Z,7.60
2023-05-15T07:55:12.625Z,7.33
2023-05-15T07:57:40.199Z,9.17
2023-05-15T08:00:13.709Z,9.97
2023-05-15T08:02:42.714Z,9.83
2023-05-15T08:05:10.490Z,10.87
2023-05-15T08:07:38.009Z,13.10
2023-05-15T08:10:06.965Z,12.40
2023-05-15T08:12:34.716Z,12.77
2023-05-15T08:15:02.187Z,9.83
2023-05-15T08:17:29.679Z,7.50
2023-05-15T08:19:57.463Z,10.33
2023-05-15T08:22:25.074Z,8.83
2023-05-15T08:24:52.742Z,8.10
2023-05-15T08:27:20.559Z,8.77
2023-05-15T08:29:49.345Z,8.47
2023-05-15T08:32:16.804Z,9.30
2023-05-15T08:34:44.568Z,8.40
2023-05-15T08:37:12.101Z,8.10
2023-05-15T08:39:39.733Z,9.83
2023-05-15T08:42:27.616Z,11.20
2023-05-15T08:44:56.459Z,10.10
2023-05-15T08:47:25.506Z,7.63
2023-05-15T08:50:12.727Z,7.73
2023-05-15T08:52:42.952Z,8.13
2023-05-15T08:55:11.329Z,10.10
2023-05-15T08:57:39.487Z,8.13
2023-05-15T09:00:09.314Z,7.37
2023-05-15T09:02:38.728Z,9.30
2023-05-15T09:05:07.417Z,7.47
2023-05-15T09:07:35.915Z,9.97
2023-05-15T09:10:04.497Z,7.83
2023-05-15T09:12:35.000Z,7.30
2023-05-15T09:15:11.827Z,7.57
2023-05-15T09:17:40.460Z,6.87
2023-05-15T09:20:11.677Z,8.67
2023-05-15T09:22:39.093Z,6.97
2023-05-15T09:25:06.953Z,9.80
2023-05-15T09:27:43.713Z,7.13
2023-05-15T09:30:11.896Z,8.52
2023-05-15T09:32:39.615Z,9.20
2023-05-15T09:35:32.938Z,6.47
2023-05-15T09:38:08.250Z,6.30
2023-05-15T09:40:35.827Z,7.43
2023-05-15T09:43:03.331Z,7.77
2023-05-15T09:45:31.504Z,7.77
2023-05-15T09:48:06.750Z,8.40
2023-05-15T09:50:37.859Z,6.37
2023-05-15T09:53:06.566Z,5.97
2023-05-15T09:55:37.707Z,7.57
2023-05-15T09:58:11.151Z,6.67
2023-05-15T10:00:48.768Z,6.80
2023-05-15T10:03:22.480Z,6.50
2023-05-15T10:05:50.205Z,6.87
2023-05-15T10:08:30.312Z,8.20
2023-05-15T10:11:01.613Z,14.00
2023-05-15T10:13:32.897Z,9.17
2023-05-15T10:16:03.720Z,7.47
2023-05-15T10:18:34.583Z,10.20
2023-05-15T10:21:04.319Z,7.03
2023-05-15T10:23:34.184Z,10.93
2023-05-15T10:26:16.232Z,6.50
2023-05-15T10:28:45.853Z,11.33
2023-05-15T10:31:14.296Z,6.67
2023-05-15T10:33:42.417Z,5.73
2023-05-15T10:36:10.995Z,17.90
2023-05-15T10:38:40.274Z,10.57
2023-05-15T10:41:17.592Z,6.77
2023-05-15T10:43:46.533Z,6.17
2023-05-15T10:46:16.074Z,12.13
2023-05-15T10:48:43.665Z,10.90
2023-05-15T10:51:19.543Z,9.10
2023-05-15T10:53:47.443Z,11.03
2023-05-15T10:56:17.185Z,14.57
2023-05-15T10:58:50.138Z,6.67
2023-05-15T11:01:32.851Z,6.37
2023-05-15T11:04:17.319Z,8.00
2023-05-15T11:06:50.178Z,10.30
2023-05-15T11:09:33.627Z,6.90
2023-05-15T11:12:04.091Z,6.97
2023-05-15T11:14:44.021Z,19.03
2023-05-15T11:17:15.224Z,9.87
2023-05-15T11:19:52.058Z,7.77
2023-05-15T11:22:19.549Z,12.60
2023-05-15T11:25:02.483Z,12.70
2023-05-15T11:27:42.737Z,14.17
2023-05-15T11:30:18.489Z,7.80
2023-05-15T11:32:54.526Z,10.20
2023-05-15T11:35:45.927Z,9.30
2023-05-15T11:38:17.033Z,13.10
2023-05-15T11:41:02.807Z,8.97
2023-05-15T11:43:56.724Z,15.33
2023-05-15T11:46:25.066Z,9.37
2023-05-15T11:48:52.769Z,9.13
2023-05-15T11:51:24.881Z,12.57
2023-05-15T11:53:55.753Z,8.60
2023-05-15T11:56:28.508Z,9.97
2023-05-15T11:58:59.128Z,15.73
2023-05-15T12:01:27.197Z,8.13
2023-05-15T12:03:55.236Z,11.03
2023-05-15T12:06:23.156Z,10.23
2023-05-15T12:08:53.150Z,12.13
2023-05-15T12:11:25.373Z,9.63
2023-05-15T12:13:54.334Z,9.40
2023-05-15T12:16:28.896Z,11.13
2023-05-15T12:18:59.703Z,9.57
2023-05-15T12:21:29.300Z,9.10
2023-05-15T12:26:29.792Z,16.13
2023-05-15T12:28:57.602Z,13.73
2023-05-15T12:31:25.400Z,9.77
2023-05-15T12:33:53.235Z,10.63
2023-05-15T12:36:23.226Z,13.20
2023-05-15T12:38:51.346Z,11.77
2023-05-15T12:41:20.411Z,12.37
2023-05-15T12:43:49.037Z,16.50
2023-05-15T12:46:16.745Z,16.60
2023-05-15T12:48:44.699Z,11.23
2023-05-15T12:51:12.200Z,10.27
2023-05-15T12:53:41.705Z,10.33
2023-05-15T12:56:10.339Z,17.30
2023-05-15T12:58:38.343Z,13.47
2023-05-15T13:01:06.308Z,14.83
2023-05-15T13:03:34.849Z,10.33
2023-05-15T13:06:03.878Z,15.07
2023-05-15T13:08:31.611Z,12.77
2023-05-15T13:11:01.151Z,10.00
2023-05-15T13:14:01.008Z,9.93
2023-05-15T13:16:30.008Z,16.73
2023-05-15T13:18:58.729Z,14.60
2023-05-15T13:21:26.389Z,9.83
2023-05-15T13:23:53.922Z,9.43
2023-05-15T13:26:21.779Z,14.63
2023-05-15T13:28:49.331Z,9.60
2023-05-15T13:31:17.365Z,9.45
2023-05-15T13:33:44.809Z,13.25
2023-05-15T13:36:12.632Z,12.25
2023-05-15T13:38:40.482Z,11.15
2023-05-15T13:41:09.169Z,8.40
2023-05-15T13:43:36.709Z,9.05
2023-05-15T13:46:04.760Z,9.48
2023-05-15T13:48:32.812Z,9.55
2023-05-15T13:51:00.756Z,8.65
2023-05-15T13:53:28.156Z,13.13
2023-05-15T13:55:55.650Z,8.48
2023-05-15T13:58:26.548Z,9.55
2023-05-15T14:00:54.308Z,9.35
2023-05-15T14:03:21.877Z,10.73
2023-05-15T14:05:49.391Z,15.98
2023-05-15T14:08:17.332Z,11.40
2023-05-15T14:10:45.810Z,8.60
2023-05-15T14:13:14.010Z,9.70
2023-05-15T14:15:41.444Z,11.02
2023-05-15T14:18:08.984Z,8.82
2023-05-15T14:20:39.352Z,8.48
2023-05-15T14:23:06.890Z,11.80
2023-05-15T14:25:34.367Z,8.65
2023-05-15T14:28:02.390Z,9.07
2023-05-15T14:30:29.949Z,9.00
2023-05-15T14:32:57.470Z,14.25
2023-05-15T14:35:24.999Z,12.43
2023-05-15T14:37:52.799Z,9.43
2023-05-15T14:40:20.380Z,10.88
2023-05-15T14:42:47.861Z,17.02
2023-05-15T14:45:15.360Z,11.25
2023-05-15T14:47:43.128Z,11.07
2023-05-15T14:50:10.928Z,8.88
2023-05-15T14:52:39.019Z,9.52
2023-05-15T14:55:10.027Z,11.20
2023-05-15T14:57:38.775Z,10.43
2023-05-15T15:00:08.229Z,11.15
2023-05-15T15:02:35.964Z,8.32
2023-05-15T15:05:04.640Z,8.95
2023-05-15T15:07:32.243Z,12.05
2023-05-15T15:09:59.655Z,14.90
2023-05-15T15:12:28.104Z,10.25
2023-05-15T15:14:55.590Z,8.13
2023-05-15T15:17:23.086Z,9.38
2023-05-15T15:19:51.073Z,8.45
2023-05-15T15:22:18.606Z,9.38
2023-05-15T15:24:46.038Z,8.13
2023-05-15T15:27:13.589Z,9.40
2023-05-15T15:29:40.998Z,14.43
2023-05-15T15:32:08.515Z,18.98
2023-05-15T15:34:36.031Z,11.73
2023-05-15T15:37:03.575Z,12.27
2023-05-15T15:39:33.722Z,18.30
2023-05-15T15:42:02.351Z,16.80
2023-05-15T15:44:51.822Z,12.57
2023-05-15T15:47:19.444Z,12.83
2023-05-15T15:49:47.235Z,13.10
2023-05-15T15:52:17.354Z,14.27
2023-05-15T15:54:47.584Z,14.23
2023-05-15T15:57:19.244Z,15.30
2023-05-15T15:59:49.725Z,15.60
2023-05-15T16:02:19.149Z,14.80
2023-05-15T16:04:46.851Z,16.80
2023-05-15T16:07:14.378Z,15.53
2023-05-15T16:09:41.878Z,16.37
2023-05-15T16:12:09.618Z,16.67
2023-05-15T16:14:37.097Z,15.80
2023-05-15T16:17:04.827Z,19.03
2023-05-15T16:19:32.489Z,24.23
2023-05-15T16:21:59.948Z,25.03
2023-05-15T16:24:27.396Z,18.50
2023-05-15T16:26:55.482Z,19.00
2023-05-15T16:29:23.838Z,18.73
2023-05-15T16:31:51.542Z,18.53
2023-05-15T16:34:19.383Z,17.33
2023-05-15T16:36:46.896Z,15.73
2023-05-15T16:39:14.429Z,18.80
2023-05-15T16:41:42.012Z,21.17
2023-05-15T16:44:10.908Z,20.63
2023-05-15T16:46:39.170Z,15.80
2023-05-15T16:49:07.266Z,17.03
2023-05-15T16:51:35.514Z,15.97
2023-05-15T16:54:03.191Z,16.03
2023-05-15T16:56:30.633Z,16.33
2023-05-15T16:58:59.086Z,17.77
2023-05-15T17:01:29.238Z,14.53
2023-05-15T17:03:59.448Z,16.10
2023-05-15T17:06:27.034Z,15.87
2023-05-15T17:08:55.563Z,14.83
2023-05-15T17:11:23.363Z,16.20
2023-05-15T17:13:50.929Z,25.63
2023-05-15T17:16:19.784Z,20.17
2023-05-15T17:18:47.470Z,15.67
2023-05-15T17:21:18.307Z,17.30
2023-05-15T17:23:47.324Z,17.90
2023-05-15T17:26:15.818Z,17.43
2023-05-15T17:28:43.375Z,17.40
2023-05-15T17:31:11.218Z,16.33
2023-05-15T17:33:58.853Z,19.93
2023-05-15T17:36:28.741Z,24.20
2023-05-15T17:39:00.626Z,20.93
2023-05-15T17:41:28.482Z,19.50
2023-05-15T17:43:56.545Z,34.07
2023-05-15T17:46:24.049Z,24.70
2023-05-15T17:48:53.320Z,22.30
2023-05-15T17:51:21.012Z,22.60
2023-05-15T17:53:51.375Z,26.70
2023-05-15T17:56:21.793Z,20.87
2023-05-15T17:58:49.290Z,19.57
2023-05-15T18:01:17.534Z,21.13
2023-05-15T18:03:49.359Z,21.50
2023-05-15T18:06:17.107Z,18.43
2023-05-15T18:08:45.337Z,18.70
2023-05-15T18:11:21.938Z,19.10
2023-05-15T18:13:53.090Z,18.57
2023-05-15T18:16:25.758Z,18.57
2023-05-15T18:18:55.489Z,23.07
2023-05-15T18:21:26.125Z,30.83
2023-05-15T18:23:54.344Z,34.00
2023-05-15T18:26:26.209Z,24.77
2023-05-15T18:28:55.942Z,19.47
2023-05-15T18:31:25.551Z,19.03
2023-05-15T18:34:00.614Z,20.03
2023-05-15T18:39:21.874Z,21.43
2023-05-15T18:41:50.400Z,21.90
2023-05-15T18:44:21.555Z,20.93
2023-05-15T18:46:49.888Z,21.53
2023-05-15T18:49:18.401Z,20.83
2023-05-15T18:51:49.252Z,20.30
2023-05-15T18:54:17.838Z,22.00
2023-05-15T18:56:48.017Z,21.03
2023-05-15T18:59:15.681Z,20.97
2023-05-15T19:01:43.358Z,22.40
2023-05-15T19:04:14.763Z,21.83
2023-05-15T19:06:50.427Z,21.07
2023-05-15T19:09:20.806Z,21.47
2023-05-15T19:11:51.811Z,20.37
2023-05-15T19:14:21.172Z,21.63
2023-05-15T19:16:48.827Z,22.13
2023-05-15T19:19:18.226Z,21.63
2023-05-15T19:21:47.530Z,20.60
2023-05-15T19:24:15.565Z,23.23
2023-05-15T19:26:44.505Z,22.33
2023-05-15T19:29:13.292Z,21.07
2023-05-15T19:31:41.078Z,20.67
2023-05-15T19:34:08.781Z,20.17
2023-05-15T19:36:39.551Z,21.10
2023-05-15T19:39:09.862Z,20.00
2023-05-15T19:41:39.499Z,20.77
2023-05-15T19:44:08.542Z,24.77
2023-05-15T19:46:36.897Z,38.37
2023-05-15T19:49:11.228Z,35.83
2023-05-15T19:51:41.279Z,25.03
2023-05-15T19:54:12.676Z,22.10
2023-05-15T19:56:49.900Z,21.43
2023-05-15T19:59:20.151Z,21.93
2023-05-15T20:01:47.710Z,22.70
2023-05-15T20:04:15.496Z,24.87
2023-05-15T20:06:43.268Z,22.90
2023-05-15T20:09:10.924Z,116.83
2023-05-15T20:11:40.334Z,179.47
2023-05-15T20:14:09.203Z,171.20
2023-05-15T20:16:37.149Z,107.13
2023-05-15T20:19:06.067Z,64.67
2023-05-15T20:21:33.899Z,39.60
2023-05-15T20:24:01.772Z,26.37
2023-05-15T20:26:29.392Z,24.53
2023-05-15T20:28:56.811Z,24.83
2023-05-15T20:31:25.616Z,24.47
2023-05-15T20:33:53.160Z,22.20
2023-05-15T20:36:25.238Z,23.40
2023-05-15T20:38:53.421Z,22.63
2023-05-15T20:41:23.185Z,23.13
2023-05-15T20:43:51.433Z,23.37
2023-05-15T20:46:19.211Z,24.03
2023-05-15T20:48:46.855Z,24.87
2023-05-15T20:51:14.333Z,25.10
2023-05-15T20:53:42.420Z,24.73
2023-05-15T20:56:09.941Z,28.27
2023-05-15T20:58:37.730Z,26.63
2023-05-15T21:01:05.804Z,25.30
2023-05-15T21:03:33.308Z,24.87
2023-05-15T21:06:02.319Z,25.50
2023-05-15T21:08:30.075Z,26.13
2023-05-15T21:10:59.701Z,25.57
2023-05-15T21:13:28.063Z,27.23
2023-05-15T21:15:55.621Z,26.50
2023-05-15T21:18:23.761Z,25.77
2023-05-15T21:20:51.761Z,27.73
2023-05-15T21:23:21.459Z,23.70
2023-05-15T21:25:49.077Z,25.73
2023-05-15T21:28:17.097Z,27.33
2023-05-15T21:30:44.662Z,28.17
2023-05-15T21:33:12.240Z,28.10
2023-05-15T21:35:40.967Z,26.03
2023-05-15T21:38:08.504Z,26.77
2023-05-15T21:40:36.359Z,25.23
2023-05-15T21:43:03.802Z,26.07
2023-05-15T21:45:31.343Z,24.90
2023-05-15T21:47:58.967Z,25.93
2023-05-15T21:50:27.590Z,27.27
2023-05-15T21:52:55.285Z,25.67
2023-05-15T21:55:23.904Z,24.83
2023-05-15T21:57:51.372Z,24.63
2023-05-15T22:00:19.235Z,27.47
2023-05-15T22:02:46.746Z,23.93
2023-05-15T22:05:14.754Z,25.30
2023-05-15T22:07:42.265Z,25.10
2023-05-15T22:10:14.083Z,25.67
2023-05-15T22:12:41.667Z,27.47
2023-05-15T22:15:10.547Z,30.37
2023-05-15T22:17:38.093Z,25.23
2023-05-15T22:20:13.260Z,26.70
2023-05-15T22:22:43.231Z,24.70
2023-05-15T22:25:10.881Z,26.90
2023-05-15T22:27:38.815Z,25.70
2023-05-15T22:30:07.403Z,26.57
2023-05-15T22:32:35.217Z,26.10
2023-05-15T22:35:03.638Z,29.87
2023-05-15T22:37:31.569Z,28.43
2023-05-15T22:39:59.084Z,25.07
2023-05-15T22:42:28.141Z,26.87
2023-05-15T22:44:57.570Z,25.27
2023-05-15T22:47:26.171Z,25.80
2023-05-15T22:49:54.079Z,25.67
2023-05-15T22:52:21.981Z,26.03
2023-05-15T22:54:49.456Z,25.47
2023-05-15T22:57:16.916Z,26.00
2023-05-15T22:59:45.444Z,25.90
2023-05-15T23:02:12.938Z,27.23
2023-05-15T23:04:40.648Z,23.70
2023-05-15T23:07:08.182Z,24.30
2023-05-15T23:09:36.250Z,22.80
2023-05-15T23:12:04.456Z,22.27
2023-05-15T23:14:32.497Z,21.83
2023-05-15T23:16:59.985Z,23.40
2023-05-15T23:19:27.561Z,23.17
2023-05-15T23:21:55.768Z,23.53
2023-05-15T23:24:23.269Z,23.00
2023-05-15T23:26:51.198Z,23.40
2023-05-15T23:29:18.672Z,22.70
2023-05-15T23:31:46.253Z,26.67
2023-05-15T23:34:13.776Z,26.23
2023-05-15T23:36:41.310Z,23.53
2023-05-15T23:39:09.412Z,26.27
2023-05-15T23:41:36.935Z,23.60
2023-05-15T23:44:04.744Z,26.20
2023-05-15T23:46:32.374Z,24.33
2023-05-15T23:48:59.895Z,20.03
2023-05-15T23:51:27.397Z,21.80
2023-05-15T23:53:54.870Z,22.63
2023-05-15T23:56:23.807Z,22.00
2023-05-15T23:58:51.269Z,26.30
